Time;durP1;ratioP1;P1;durP2;ratioP2;P2;SDS_P1;SDS_P2;PMS_P1;PMS_P2;Temp;Humidity;BMP_temperature;BMP_pressure;BME280_temperature;BME280_humidity;BME280_pressure;Samples;Min_cycle;Max_cycle;Signal;HPM_P1;HPM_P2
2022/04/01 00:00:42;;;;;;;49.33;30.15;;;;;;;7.29;100.00;97689.43;1753451;81;21557;-73
2022/04/01 00:03:12;;;;;;;49.55;33.35;;;;;;;7.27;100.00;97684.87;1750324;81;20938;-76
2022/04/01 00:05:40;;;;;;;54.70;32.80;;;;;;;7.24;100.00;97681.46;1748256;81;21525;-77
2022/04/01 00:08:08;;;;;;;60.12;33.73;;;;;;;7.23;100.00;97689.42;1749478;81;21439;-74
2022/04/01 00:10:37;;;;;;;49.93;30.80;;;;;;;7.21;100.00;97693.05;1751595;81;20960;-74
2022/04/01 00:13:04;;;;;;;55.58;32.53;;;;;;;7.18;100.00;97693.73;1746045;81;21042;-75
2022/04/01 00:15:33;;;;;;;53.95;32.20;;;;;;;7.17;100.00;97695.44;1746557;81;20911;-74
2022/04/01 00:18:00;;;;;;;61.00;35.45;;;;;;;7.15;100.00;97686.22;1749709;81;21054;-74
2022/04/01 00:20:27;;;;;;;55.08;32.15;;;;;;;7.15;100.00;97686.78;1738143;81;21131;-75
2022/04/01 00:22:55;;;;;;;60.08;33.92;;;;;;;7.13;100.00;97687.12;1737528;82;21514;-75
2022/04/01 00:25:22;;;;;;;54.10;31.57;;;;;;;7.13;100.00;97680.30;1735503;82;20955;-75
2022/04/01 00:27:50;;;;;;;56.25;32.48;;;;;;;7.13;100.00;97683.03;1742634;81;21053;-75
2022/04/01 00:30:17;;;;;;;53.90;32.55;;;;;;;7.14;100.00;97677.80;1750839;81;20887;-75
2022/04/01 00:32:44;;;;;;;56.70;32.08;;;;;;;7.11;100.00;97662.67;1745207;81;21490;-75
2022/04/01 00:35:11;;;;;;;53.60;32.60;;;;;;;7.10;100.00;97656.42;1748284;81;20923;-75
2022/04/01 00:37:40;;;;;;;57.78;33.67;;;;;;;7.10;100.00;97654.26;1753663;81;20938;-75
2022/04/01 00:40:11;;;;;;;55.17;33.20;;;;;;;7.10;100.00;97658.35;1743593;81;21014;-72
2022/04/01 00:42:40;;;;;;;54.18;33.28;;;;;;;7.09;100.00;97656.19;1743777;81;20863;-73
2022/04/01 00:45:10;;;;;;;53.95;32.48;;;;;;;7.11;100.00;97654.48;1749773;81;21238;-72
2022/04/01 00:47:38;;;;;;;53.10;31.45;;;;;;;7.11;100.00;97663.47;1744662;81;21048;-72
2022/04/01 00:50:07;;;;;;;52.00;31.60;;;;;;;7.11;100.00;97664.84;1749300;81;20938;-68
2022/04/01 00:52:34;;;;;;;50.45;30.92;;;;;;;7.11;100.00;97643.58;1750993;81;21583;-74
2022/04/01 00:55:04;;;;;;;54.23;31.52;;;;;;;7.11;100.00;97651.20;1750201;81;20927;-74
2022/04/01 00:57:31;;;;;;;50.75;30.02;;;;;;;7.10;100.00;97636.52;1752079;81;21147;-73
2022/04/01 00:59:58;;;;;;;49.90;29.72;;;;;;;7.08;100.00;97640.16;1748887;81;21003;-74
2022/04/01 01:02:25;;;;;;;49.42;30.27;;;;;;;7.07;100.00;97629.02;1749279;81;20997;-74
2022/04/01 01:04:54;;;;;;;47.80;28.38;;;;;;;7.05;100.00;97619.02;1755525;81;20982;-72
2022/04/01 01:07:21;;;;;;;48.23;28.62;;;;;;;7.03;100.00;97607.08;1753721;81;21058;-74
2022/04/01 01:09:49;;;;;;;44.98;28.32;;;;;;;7.00;100.00;97596.04;1751467;81;21762;-73
2022/04/01 01:12:17;;;;;;;48.33;29.65;;;;;;;6.98;100.00;97592.29;1752155;81;20930;-72
2022/04/01 01:14:46;;;;;;;42.23;27.40;;;;;;;6.96;100.00;97579.55;1738850;81;21440;-72
2022/04/01 01:17:14;;;;;;;35.92;24.02;;;;;;;6.95;100.00;97583.42;1744786;81;21065;-73
2022/04/01 01:19:45;;;;;;;43.75;26.33;;;;;;;6.93;100.00;97574.81;1750771;81;21064;-73
2022/04/01 01:22:13;;;;;;;45.75;25.80;;;;;;;6.93;100.00;97575.58;1750952;81;21158;-73
2022/04/01 01:24:43;;;;;;;43.42;27.25;;;;;;;6.95;100.00;97573.87;1744946;81;21086;-74
2022/04/01 01:27:11;;;;;;;39.85;25.48;;;;;;;6.95;100.00;97573.87;1751537;81;21070;-74
2022/04/01 01:29:39;;;;;;;42.38;26.07;;;;;;;6.93;100.00;97567.39;1744853;81;21065;-74
2022/04/01 01:32:11;;;;;;;46.68;26.95;;;;;;;6.93;100.00;97561.94;1749680;81;20893;-74
2022/04/01 01:34:39;;;;;;;41.60;24.82;;;;;;;6.96;100.00;97561.82;1743633;82;21193;-74
2022/04/01 01:37:07;;;;;;;45.25;28.87;;;;;;;6.96;100.00;97561.82;1748653;81;21007;-74
2022/04/01 01:39:35;;;;;;;42.65;25.65;;;;;;;6.93;100.00;97558.44;1746324;81;21478;-73
2022/04/01 01:42:02;;;;;;;39.75;26.12;;;;;;;6.94;100.00;97560.00;1746319;81;21117;-73
2022/04/01 01:44:29;;;;;;;38.08;25.40;;;;;;;6.95;100.00;97558.30;1745232;81;21503;-73
2022/04/01 01:46:57;;;;;;;43.35;25.55;;;;;;;6.94;100.00;97563.53;1747734;81;21246;-79
2022/04/01 01:49:23;;;;;;;43.60;25.12;;;;;;;6.93;100.00;97570.12;1742582;81;21656;-79
2022/04/01 01:54:43;;;;;;;40.00;24.47;;;;;;;6.97;100.00;97577.05;1746810;81;21006;-80
2022/04/01 01:57:13;;;;;;;43.00;25.82;;;;;;;6.97;100.00;97581.14;1752559;81;21132;-83
2022/04/01 01:59:39;;;;;;;39.35;24.40;;;;;;;6.98;100.00;97590.92;1752821;81;21772;-82
2022/04/01 02:02:08;;;;;;;37.65;25.15;;;;;;;7.00;100.00;97595.47;1736112;81;20968;-78
2022/04/01 02:04:36;;;;;;;38.50;23.67;;;;;;;7.00;100.00;97598.20;1744044;81;20999;-79
2022/04/01 02:07:03;;;;;;;37.25;23.30;;;;;;;7.01;100.00;97601.73;1744983;81;20955;-80
2022/04/01 02:09:30;;;;;;;38.85;25.43;;;;;;;7.00;100.00;97599.56;1747275;81;21013;-73
2022/04/01 02:11:58;;;;;;;41.15;26.05;;;;;;;7.00;100.00;97588.66;1738267;81;21239;-73
2022/04/01 02:14:27;;;;;;;39.25;26.07;;;;;;;7.01;100.00;97580.70;1715582;82;20951;-73
2022/04/01 02:16:54;;;;;;;35.40;23.12;;;;;;;7.02;100.00;97589.11;1720741;82;20994;-78
2022/04/01 02:19:22;;;;;;;40.95;26.70;;;;;;;7.02;100.00;97567.85;1730059;81;21564;-75
2022/04/01 02:21:52;;;;;;;35.50;23.05;;;;;;;7.03;100.00;97562.63;1734073;81;21486;-74
2022/04/01 02:24:24;;;;;;;35.10;24.05;;;;;;;7.02;100.00;97568.65;1722699;82;21213;-75
2022/04/01 02:26:52;;;;;;;38.10;24.40;;;;;;;7.03;100.00;97569.45;1724020;81;20923;-76
2022/04/01 02:29:20;;;;;;;35.78;23.32;;;;;;;7.03;100.00;97560.69;1731476;81;20919;-76
2022/04/01 02:31:55;;;;;;;37.23;24.72;;;;;;;7.07;100.00;97556.72;1694256;82;20943;-76
2022/04/01 02:34:25;;;;;;;37.83;25.27;;;;;;;7.08;100.00;97551.48;1668144;83;20959;-75
2022/04/01 02:36:58;;;;;;;36.83;24.92;;;;;;;7.05;100.00;97543.41;1733154;80;21857;-74
2022/04/01 02:39:25;;;;;;;;;;;;;;;7.06;100.00;97546.94;1744362;81;20934;-73
2022/04/01 02:41:51;;;;;;;35.92;24.12;;;;;;;7.06;100.00;97540.91;1726952;81;20112;-74
2022/04/01 02:44:18;;;;;;;34.50;24.63;;;;;;;7.06;100.00;97547.73;1724188;82;21462;-75
2022/04/01 02:46:47;;;;;;;34.33;25.30;;;;;;;7.06;100.00;97542.28;1726037;81;21079;-75
2022/04/01 02:49:16;;;;;;;37.60;26.00;;;;;;;7.06;100.00;97543.64;1731377;81;21146;-73
2022/04/01 02:52:00;;;;;;;37.33;25.57;;;;;;;7.09;100.00;97533.41;1737436;81;20973;-74
2022/04/01 02:54:29;;;;;;;36.83;24.95;;;;;;;7.09;100.00;97534.77;1741969;81;20954;-76
2022/04/01 02:56:59;;;;;;;36.70;24.92;;;;;;;7.09;100.00;97531.25;1732571;81;20998;-73
2022/04/01 02:59:26;;;;;;;36.88;25.45;;;;;;;7.10;100.00;97521.36;1695343;82;21176;-74
2022/04/01 03:01:54;;;;;;;38.60;26.10;;;;;;;7.12;100.00;97525.91;1730986;81;22369;-73
2022/04/01 03:04:22;;;;;;;37.98;26.23;;;;;;;7.12;100.00;97521.81;1732404;81;21525;-79
2022/04/01 03:06:51;;;;;;;36.13;26.00;;;;;;;7.13;100.00;97522.05;1730438;81;21029;-75
2022/04/01 03:09:19;;;;;;;38.80;26.85;;;;;;;7.14;100.00;97517.38;1736152;81;20903;-74
2022/04/01 03:11:54;;;;;;;41.73;27.62;;;;;;;7.14;100.00;97507.83;1713015;81;21164;-72
2022/04/01 03:14:26;;;;;;;41.65;27.02;;;;;;;7.13;100.00;97513.86;1742345;81;21159;-77
2022/04/01 03:17:11;;;;;;;39.30;26.15;;;;;;;7.13;100.00;97502.14;1750975;81;20962;-76
2022/04/01 03:19:40;;;;;;;38.08;26.07;;;;;;;7.14;100.00;97507.27;1731637;81;21469;-75
2022/04/01 03:22:07;;;;;;;39.00;27.00;;;;;;;7.15;100.00;97500.66;1730540;81;21005;-74
2022/04/01 03:24:36;;;;;;;37.23;26.50;;;;;;;7.15;100.00;97506.13;1740999;81;21750;-76
2022/04/01 03:27:05;;;;;;;37.78;26.57;;;;;;;7.16;100.00;97506.35;1756541;81;20927;-76
2022/04/01 03:29:32;;;;;;;41.75;29.23;;;;;;;7.16;100.00;97500.89;1750234;81;21006;-76
2022/04/01 03:32:00;;;;;;;40.70;28.35;;;;;;;7.16;100.00;97502.26;1745968;81;21077;-78
2022/04/01 03:34:28;;;;;;;41.88;28.55;;;;;;;7.16;100.00;97492.70;1741740;82;20903;-75
2022/04/01 03:36:56;;;;;;;40.12;27.27;;;;;;;7.16;100.00;97498.16;1748434;81;20942;-76
2022/04/01 03:39:24;;;;;;;43.87;29.35;;;;;;;7.17;100.00;97497.59;1752956;81;21840;-76
2022/04/01 03:41:53;;;;;;;45.00;28.75;;;;;;;7.18;100.00;97496.45;1730771;80;20998;-76
2022/04/01 03:44:24;;;;;;;45.00;30.70;;;;;;;7.19;100.00;97498.84;1713645;82;21557;-77
2022/04/01 03:47:05;;;;;;;43.35;30.10;;;;;;;7.19;100.00;97498.84;1707364;82;21071;-76
2022/04/01 03:49:34;;;;;;;46.95;31.15;;;;;;;7.22;100.00;97506.34;1743334;82;21093;-78
2022/04/01 03:52:01;;;;;;;51.50;32.15;;;;;;;7.22;100.00;97499.52;1741679;82;21207;-77
2022/04/01 03:54:31;;;;;;;48.55;32.33;;;;;;;7.24;100.00;97508.73;1741803;82;21014;-80
2022/04/01 03:57:05;;;;;;;52.40;33.02;;;;;;;7.24;100.00;97501.34;1748797;81;20951;-78
2022/04/01 03:59:54;;;;;;;47.43;31.02;;;;;;;7.28;100.00;97495.42;1752308;81;20982;-78
2022/04/01 04:02:44;;;;;;;53.42;32.55;;;;;;;7.32;100.00;97493.37;1749825;81;21489;-76
2022/04/01 04:05:13;;;;;;;55.90;34.65;;;;;;;7.33;100.00;97479.95;1750961;81;21101;-76
2022/04/01 04:07:41;;;;;;;54.05;34.40;;;;;;;7.40;100.00;97477.43;1753345;80;20938;-72
2022/04/01 04:10:10;;;;;;;55.85;34.18;;;;;;;7.41;100.00;97477.09;1750480;81;21129;-72
2022/04/01 04:12:46;;;;;;;57.70;36.00;;;;;;;7.43;100.00;97472.08;1692013;81;20950;-75
2022/04/01 04:15:14;;;;;;;58.25;34.67;;;;;;;7.44;100.00;97470.94;1742888;81;21499;-74
2022/04/01 04:17:45;;;;;;;57.33;36.55;;;;;;;7.48;100.00;97475.14;1749241;81;21526;-75
2022/04/01 04:20:34;;;;;;;69.62;41.73;;;;;;;7.50;100.00;97472.86;1753799;81;21066;-73
2022/04/01 04:23:10;;;;;;;92.05;49.83;;;;;;;7.51;100.00;97465.66;1752439;81;21126;-74
2022/04/01 04:25:39;;;;;;;87.02;47.50;;;;;;;7.54;100.00;97464.97;1746865;81;20911;-78
2022/04/01 04:28:10;;;;;;;127.50;73.72;;;;;;;7.61;100.00;97465.74;1750273;81;20987;-76
2022/04/01 04:30:42;;;;;;;74.05;42.25;;;;;;;7.63;100.00;97458.00;1720622;81;21462;-79
2022/04/01 04:33:11;;;;;;;75.20;43.13;;;;;;;7.67;100.00;97460.83;1748979;81;21038;-78
2022/04/01 04:35:40;;;;;;;72.50;42.75;;;;;;;7.69;100.00;97452.52;1748419;81;20895;-82
2022/04/01 04:38:07;;;;;;;66.60;39.25;;;;;;;7.71;100.00;97455.70;1751212;81;21059;-78
2022/04/01 04:40:35;;;;;;;63.33;37.58;;;;;;;7.75;100.00;97454.43;1742099;81;20997;-78
2022/04/01 04:43:08;;;;;;;62.15;37.58;;;;;;;7.78;100.00;97460.00;1726667;81;21226;-77
2022/04/01 04:45:35;;;;;;;60.73;37.17;;;;;;;7.81;100.00;97453.04;1733303;81;21003;-77
2022/04/01 04:48:04;;;;;;;57.70;36.33;;;;;;;7.83;100.00;97451.55;1694681;83;20908;-73
2022/04/01 04:50:33;;;;;;;57.62;35.65;;;;;;;7.86;100.00;97458.26;1674562;84;21062;-76
2022/04/01 04:52:59;;;;;;;60.70;36.95;;;;;;;7.89;100.00;97451.52;1713321;82;20947;-76
2022/04/01 04:55:27;;;;;;;62.95;35.92;;;;;;;7.92;100.00;97465.85;1710584;83;21312;-76
2022/04/01 04:57:59;;;;;;;55.60;33.38;;;;;;;7.94;100.00;97462.77;1714453;82;28513;-75
2022/04/01 05:00:26;;;;;;;65.95;36.77;;;;;;;7.98;100.00;97458.77;1712191;83;21029;-76
2022/04/01 05:03:19;;;;;;;62.00;35.83;;;;;;;7.99;100.00;97459.79;1692601;82;21027;-76
2022/04/01 05:05:56;;;;;;;69.75;35.98;;;;;;;8.02;100.00;97451.47;1714775;82;20955;-80
2022/04/01 05:09:00;;;;;;;66.95;34.05;;;;;;;8.04;100.00;97441.78;1722744;82;20954;-78
2022/04/01 05:12:01;;;;;;;70.85;41.02;;;;;;;8.06;100.00;97444.16;1713610;83;20837;-83
2022/04/01 05:14:41;;;;;;;461.05;187.77;;;;;;;8.08;100.00;97452.23;1728092;81;20995;-78
2022/04/01 05:17:17;;;;;;;288.20;113.72;;;;;;;8.14;100.00;97462.30;1717191;81;20962;-76
2022/04/01 05:19:50;;;;;;;203.12;126.18;;;;;;;8.16;100.00;97460.81;1735939;81;21517;-75
2022/04/01 05:22:18;;;;;;;75.78;49.15;;;;;;;8.18;100.00;97456.36;1735774;81;21161;-75
2022/04/01 05:24:52;;;;;;;56.90;32.08;;;;;;;8.20;100.00;97458.97;1689326;83;20988;-74
2022/04/01 05:27:25;;;;;;;55.80;28.42;;;;;;;8.23;100.00;97451.44;1723477;81;21025;-75
2022/04/01 05:30:16;;;;;;;54.30;28.42;;;;;;;8.26;100.00;97441.73;1749352;80;21532;-76
2022/04/01 05:33:08;;;;;;;53.15;26.50;;;;;;;8.28;100.00;97428.52;1744961;81;21085;-75
2022/04/01 05:35:40;;;;;;;51.20;26.68;;;;;;;8.34;100.00;97431.23;1741050;81;21218;-74
2022/04/01 05:38:08;;;;;;;57.53;26.80;;;;;;;8.39;100.00;97426.08;1715281;81;21100;-81
2022/04/01 05:40:37;;;;;;;53.13;24.35;;;;;;;8.43;100.00;97427.77;1711164;83;20877;-85
2022/04/01 05:43:06;;;;;;;60.08;27.22;;;;;;;8.47;100.00;97419.08;1714315;82;21012;-70
2022/04/01 05:45:53;;;;;;;52.25;24.67;;;;;;;8.53;100.00;97418.23;1713619;80;20861;-80
2022/04/01 05:48:19;;;;;;;47.03;24.27;;;;;;;8.59;100.00;97423.66;1755721;81;21120;-80
2022/04/01 05:50:47;;;;;;;48.23;24.23;;;;;;;8.64;100.00;97424.76;1714100;83;20944;-84
2022/04/01 05:53:14;;;;;;;52.48;23.77;;;;;;;8.70;100.00;97417.05;1744381;81;20934;-83
2022/04/01 05:55:43;;;;;;;51.77;24.98;;;;;;;8.74;100.00;97417.35;1716888;82;21011;-76
2022/04/01 05:58:11;;;;;;;57.30;24.27;;;;;;;8.78;100.00;97416.86;1743315;81;21033;-76
2022/04/01 06:00:56;;;;;;;52.08;24.43;;;;;;;8.79;100.00;97429.39;1746076;81;21292;-84
2022/04/01 06:03:31;;;;;;;50.83;24.77;;;;;;;8.80;100.00;97428.24;1738708;81;21580;-77
2022/04/01 06:06:16;;;;;;;48.90;24.60;;;;;;;8.81;100.00;97429.83;1705035;82;20939;-81
2022/04/01 06:09:14;;;;;;;55.95;22.52;;;;;;;8.83;100.00;97426.74;1650535;84;21007;-75
2022/04/01 06:12:12;;;;;;;61.25;24.87;;;;;;;8.86;100.00;97420.56;1751615;81;20951;-76
2022/04/01 06:15:18;;;;;;;51.77;23.70;;;;;;;8.87;100.00;97421.57;1742362;81;21505;-74
2022/04/01 06:18:21;;;;;;;53.65;24.10;;;;;;;8.89;100.00;97428.05;1714390;82;20974;-79
2022/04/01 06:20:48;;;;;;;57.38;23.07;;;;;;;8.90;100.00;97429.06;1718496;82;20942;-82
2022/04/01 06:23:25;;;;;;;43.55;22.13;;;;;;;8.93;100.00;97433.03;1721801;82;20982;-76
2022/04/01 06:25:57;;;;;;;45.05;21.70;;;;;;;8.94;100.00;97427.78;1713595;83;21069;-79
2022/04/01 06:28:31;;;;;;;52.55;23.02;;;;;;;8.99;100.00;97421.24;1688393;83;21090;-78
2022/04/01 06:31:05;;;;;;;56.92;25.27;;;;;;;9.03;100.00;97407.86;1689997;83;21054;-75
2022/04/01 06:33:56;;;;;;;51.98;23.70;;;;;;;9.06;100.00;97411.25;1710502;83;21485;-78
2022/04/01 06:36:41;;;;;;;45.98;23.77;;;;;;;9.09;100.00;97409.17;1712318;83;21033;-86
2022/04/01 06:39:09;;;;;;;52.73;25.48;;;;;;;9.15;100.00;97409.69;1711856;82;20967;-79
2022/04/01 06:41:50;;;;;;;46.70;23.62;;;;;;;9.21;100.00;97404.14;1712087;83;21201;-79
2022/04/01 06:44:37;;;;;;;55.55;23.95;;;;;;;9.31;100.00;97410.97;1680355;85;20864;-77
2022/04/01 06:47:23;;;;;;;52.13;23.70;;;;;;;9.37;100.00;97402.69;1687534;84;21129;-76
2022/04/01 06:49:52;;;;;;;47.35;22.58;;;;;;;9.43;100.00;97402.63;1706209;82;21201;-76
2022/04/01 06:52:40;;;;;;;51.90;23.52;;;;;;;9.47;100.00;97399.38;1719562;82;20897;-77
2022/04/01 06:55:25;;;;;;;46.55;23.27;;;;;;;9.52;100.00;97390.88;1717220;81;21900;-77
2022/04/01 06:57:54;;;;;;;56.98;23.60;;;;;;;9.60;100.00;97389.87;1721856;82;20942;-75
2022/04/01 07:00:35;;;;;;;70.40;36.03;;;;;;;9.67;100.00;97406.45;1715371;82;20989;-78
2022/04/01 07:03:02;;;;;;;64.82;30.45;;;;;;;9.75;100.00;97406.80;1716732;82;20983;-78
2022/04/01 07:05:30;;;;;;;54.85;27.87;;;;;;;9.77;100.00;97408.61;1726028;81;20894;-76
2022/04/01 07:07:57;;;;;;;63.70;36.63;;;;;;;9.77;100.00;97405.07;1720368;82;21418;-77
2022/04/01 07:10:24;;;;;;;57.20;27.02;;;;;;;9.76;100.00;97407.02;1720775;82;21567;-76
2022/04/01 07:12:52;;;;;;;70.12;35.05;;;;;;;9.79;100.00;97403.55;1716663;82;20959;-77
2022/04/01 07:15:19;;;;;;;54.65;28.20;;;;;;;9.80;100.00;97395.55;1723857;82;21124;-76
2022/04/01 07:17:46;;;;;;;51.75;25.85;;;;;;;9.79;100.00;97395.34;1717028;82;20903;-76
2022/04/01 07:20:13;;;;;;;56.55;24.20;;;;;;;9.79;100.00;97393.97;1707650;82;21245;-77
2022/04/01 07:22:42;;;;;;;44.53;24.70;;;;;;;9.79;100.00;97392.59;1718759;82;21013;-77
2022/04/01 07:25:10;;;;;;;45.40;24.75;;;;;;;9.80;100.00;97394.19;1725164;82;20962;-76
2022/04/01 07:27:38;;;;;;;45.55;24.10;;;;;;;9.81;100.00;97382.06;1716023;82;20943;-78
2022/04/01 07:30:10;;;;;;;55.43;24.80;;;;;;;9.87;100.00;97385.27;1717560;81;20942;-75
2022/04/01 07:32:37;;;;;;;59.70;25.43;;;;;;;9.93;100.00;97394.20;1719328;82;21211;-75
2022/04/01 07:35:09;;;;;;;60.10;24.72;;;;;;;9.98;100.00;97390.38;1716296;82;21057;-75
2022/04/01 07:37:36;;;;;;;52.78;25.20;;;;;;;10.07;100.00;97388.77;1723657;82;21230;-75
2022/04/01 07:40:07;;;;;;;54.10;24.12;;;;;;;10.16;100.00;97386.59;1718642;82;21514;-76
2022/04/01 07:42:35;;;;;;;58.70;28.80;;;;;;;10.21;100.00;97383.00;1714389;82;21125;-75
2022/04/01 07:45:06;;;;;;;56.13;28.50;;;;;;;10.27;100.00;97388.97;1725336;82;21168;-75
2022/04/01 07:47:34;;;;;;;50.17;31.27;;;;;;;10.29;100.00;97392.14;1719867;82;21561;-75
2022/04/01 07:50:03;;;;;;;62.65;31.65;;;;;;;10.33;100.00;97377.91;1716592;82;20967;-74
2022/04/01 07:52:40;;;;;;;66.70;28.15;;;;;;;10.38;100.00;97384.45;1720535;82;21042;-73
2022/04/01 07:55:00;;;;;;;49.85;26.73;;;;;;;10.45;100.00;97385.13;1712834;82;20973;-75
2022/04/01 07:57:28;;;;;;;61.15;26.52;;;;;;;10.49;100.00;97374.42;1712815;82;21104;-76
2022/04/01 07:59:55;;;;;;;45.33;23.65;;;;;;;10.54;100.00;97384.30;1719485;81;21176;-74
2022/04/01 08:02:22;;;;;;;50.40;25.68;;;;;;;10.62;100.00;97387.95;1719053;82;21057;-77
2022/04/01 08:04:49;;;;;;;46.88;23.70;;;;;;;10.68;100.00;97385.89;1716534;82;21057;-75
2022/04/01 08:07:18;;;;;;;47.85;24.75;;;;;;;10.76;100.00;97385.42;1721267;82;20979;-80
2022/04/01 08:09:44;;;;;;;55.70;24.15;;;;;;;10.76;100.00;97386.80;1719097;82;21214;-83
2022/04/01 08:12:11;;;;;;;56.20;25.23;;;;;;;10.72;100.00;97388.70;1721358;82;20977;-77
2022/04/01 08:14:40;;;;;;;48.83;23.10;;;;;;;10.68;100.00;97383.73;1724951;82;20899;-74
2022/04/01 08:17:11;;;;;;;51.00;25.30;;;;;;;10.63;100.00;97371.70;1741768;81;20959;-84
2022/04/01 08:19:39;;;;;;;55.05;23.73;;;;;;;10.59;100.00;97375.75;1745516;81;20958;-79
2022/04/01 08:22:06;;;;;;;43.05;22.37;;;;;;;10.55;100.00;97368.84;1741769;81;21077;-76
2022/04/01 08:24:33;;;;;;;48.17;22.05;;;;;;;10.52;100.00;97376.43;1743103;81;20903;-76
2022/04/01 08:27:00;;;;;;;51.02;24.70;;;;;;;10.50;100.00;97376.01;1754654;81;21434;-76
2022/04/01 08:29:30;;;;;;;45.03;23.57;;;;;;;10.54;100.00;97376.06;1747229;81;21006;-75
2022/04/01 08:31:57;;;;;;;40.67;21.97;;;;;;;10.58;100.00;97377.70;1754332;81;20883;-76
2022/04/01 08:34:24;;;;;;;46.23;22.40;;;;;;;10.64;100.00;97372.70;1754042;81;21481;-80
2022/04/01 08:36:54;;;;;;;47.15;22.52;;;;;;;10.68;100.00;97375.50;1751355;81;20903;-81
2022/04/01 08:39:23;;;;;;;45.67;23.40;;;;;;;10.69;100.00;97381.99;1723898;82;21037;-74
2022/04/01 08:41:51;;;;;;;47.48;22.27;;;;;;;10.72;100.00;97383.20;1695606;82;20979;-74
2022/04/01 08:44:20;;;;;;;46.25;23.57;;;;;;;10.77;100.00;97383.69;1725754;81;20995;-74
2022/04/01 08:46:48;;;;;;;42.55;23.05;;;;;;;10.82;100.00;97379.83;1735350;81;21119;-78
2022/04/01 08:49:16;;;;;;;46.53;22.52;;;;;;;10.87;100.00;97378.94;1736918;81;21556;-79
2022/04/01 08:51:44;;;;;;;44.45;21.70;;;;;;;10.91;100.00;97381.16;1737925;80;21107;-83
2022/04/01 08:54:10;;;;;;;44.30;21.68;;;;;;;10.89;100.00;97386.22;1727551;80;20996;-78
2022/04/01 08:56:37;;;;;;;47.80;21.17;;;;;;;10.90;100.00;97388.38;1711618;81;20977;-73
2022/04/01 08:59:04;;;;;;;37.55;19.85;;;;;;;10.96;100.00;97388.28;1712395;81;21243;-74
2022/04/01 09:01:44;;;;;;;43.20;21.17;;;;;;;11.00;100.00;97391.84;1717860;82;20962;-75
2022/04/01 09:04:25;;;;;;;50.08;23.20;;;;;;;11.01;100.00;97387.93;1715373;82;20953;-79
2022/04/01 09:06:52;;;;;;;46.50;21.52;;;;;;;11.06;100.00;97385.45;1714195;82;20950;-86
2022/04/01 09:09:26;;;;;;;47.75;24.25;;;;;;;11.13;100.00;97383.59;1708287;82;21472;-82
2022/04/01 09:12:13;;;;;;;40.67;22.42;;;;;;;11.22;100.00;97385.48;1733602;81;21177;-73
2022/04/01 09:14:51;;;;;;;48.17;23.98;;;;;;;11.37;100.00;97386.47;1714592;81;20915;-73
2022/04/01 09:17:18;;;;;;;52.48;23.10;;;;;;;11.55;100.00;97390.20;1709103;82;20938;-72
2022/04/01 09:19:46;;;;;;;44.20;20.88;;;;;;;11.63;100.00;97386.16;1718711;82;20962;-76
2022/04/01 09:22:24;;;;;;;42.67;22.30;;;;;;;11.61;100.00;97393.41;1713545;81;21470;-74
2022/04/01 09:25:12;;;;;;;42.98;21.07;;;;;;;11.59;100.00;97395.16;1709902;83;21788;-77
2022/04/01 09:27:51;;;;;;;44.10;22.25;;;;;;;11.65;100.00;97397.58;1711957;82;21087;-72
2022/04/01 09:30:26;;;;;;;45.73;24.25;;;;;;;11.69;100.00;97399.20;1745868;81;20971;-72
2022/04/01 09:33:00;;;;;;;42.27;22.42;;;;;;;11.77;100.00;97398.15;1743664;81;21541;-70
2022/04/01 09:35:30;;;;;;;46.55;22.98;;;;;;;11.82;100.00;97395.06;1748002;81;20887;-71
2022/04/01 09:38:01;;;;;;;48.00;22.32;;;;;;;11.82;100.00;97398.39;1740084;81;21073;-70
2022/04/01 09:40:28;;;;;;;44.05;22.60;;;;;;;11.81;100.00;97394.06;1747251;81;21586;-72
2022/04/01 09:42:59;;;;;;;47.40;21.93;;;;;;;11.76;100.00;97402.03;1751371;81;20899;-71
2022/04/01 09:45:30;;;;;;;45.28;20.95;;;;;;;11.75;100.00;97399.66;1750773;81;20954;-72
2022/04/01 09:48:06;;;;;;;51.92;24.57;;;;;;;11.75;100.00;97402.41;1749921;81;20891;-72
2022/04/01 09:50:38;;;;;;;39.00;22.20;;;;;;;11.80;100.00;97404.86;1748370;81;21081;-84
2022/04/01 09:53:17;;;;;;;46.18;22.93;;;;;;;11.88;100.00;97406.52;1751417;81;21060;-75
2022/04/01 09:55:49;;;;;;;51.42;23.12;;;;;;;11.89;100.00;97399.85;1746775;80;21065;-79
2022/04/01 09:58:18;;;;;;;61.88;27.15;;;;;;;12.00;100.00;97399.97;1749918;81;20965;-80
2022/04/01 10:00:45;;;;;;;61.60;26.35;;;;;;;12.19;100.00;97397.00;1745553;81;20942;-73
2022/04/01 10:03:14;;;;;;;53.95;24.55;;;;;;;12.37;100.00;97399.34;1716345;82;21110;-82
2022/04/01 10:05:41;;;;;;;48.10;24.70;;;;;;;12.48;100.00;97398.05;1742967;80;21820;-76
2022/04/01 10:08:11;;;;;;;52.35;22.58;;;;;;;12.56;100.00;97398.33;1728922;81;20892;-75
2022/04/01 10:10:41;;;;;;;68.97;24.23;;;;;;;12.72;100.00;97395.28;1685665;83;21450;-84
2022/04/01 10:13:22;;;;;;;54.35;23.57;;;;;;;12.87;100.00;97395.59;1709964;82;20922;-73
2022/04/01 10:15:51;;;;;;;49.10;22.77;;;;;;;12.98;99.66;97394.28;1709146;83;21478;-83
2022/04/01 10:18:19;;;;;;;51.23;23.22;;;;;;;13.07;98.91;97393.37;1709618;82;20918;-76
2022/04/01 10:20:47;;;;;;;52.17;23.85;;;;;;;13.09;97.61;97390.43;1709043;82;21033;-75
2022/04/01 10:23:16;;;;;;;52.40;24.07;;;;;;;13.17;98.35;97390.70;1710186;82;20939;-77
2022/04/01 10:26:02;;;;;;;53.10;23.87;;;;;;;13.36;98.23;97390.98;1709192;83;21056;-81
2022/04/01 10:28:29;;;;;;;48.02;23.73;;;;;;;13.50;94.99;97385.54;1710414;82;21091;-74
2022/04/01 10:31:00;;;;;;;58.68;23.32;;;;;;;13.54;93.68;97385.56;1720675;81;20895;-73
2022/04/01 10:33:38;;;;;;;55.78;22.05;;;;;;;13.50;93.16;97385.54;1744415;81;20904;-74
2022/04/01 10:36:34;;;;;;;49.18;22.22;;;;;;;13.42;93.10;97385.30;1752747;81;22613;-74
2022/04/01 10:39:07;;;;;;;50.10;23.87;;;;;;;13.38;93.13;97390.59;1754910;81;21096;-75
2022/04/01 10:41:36;;;;;;;48.40;23.73;;;;;;;13.33;93.48;97393.13;1703434;83;20984;-76
2022/04/01 10:44:06;;;;;;;49.48;21.40;;;;;;;13.42;94.72;97388.65;1702272;84;20995;-79
2022/04/01 10:46:37;;;;;;;46.68;21.85;;;;;;;13.68;93.71;97387.00;1743097;81;20948;-80
2022/04/01 10:52:18;;;;;;;43.80;19.77;;;;;;;14.64;92.03;97385.78;1701069;83;21016;-77
2022/04/01 10:55:08;;;;;;;51.88;21.97;;;;;;;15.11;86.05;97387.89;1737677;82;20919;-74
2022/04/01 10:57:44;;;;;;;47.03;20.70;;;;;;;15.07;83.02;97385.14;1734535;82;20899;-74
2022/04/01 11:00:16;;;;;;;45.38;20.10;;;;;;;14.90;82.53;97383.21;1710904;83;21006;-77
2022/04/01 11:02:46;;;;;;;37.28;19.37;;;;;;;14.70;82.34;97391.11;1751007;81;21518;-75
2022/04/01 11:05:31;;;;;;;41.95;20.32;;;;;;;14.57;83.95;97391.89;1714745;83;21058;-70
2022/04/01 11:08:21;;;;;;;40.65;20.77;;;;;;;14.52;84.08;97389.73;1749374;81;21411;-72
2022/04/01 11:11:14;;;;;;;45.10;20.30;;;;;;;14.59;84.67;97388.94;1740000;80;21051;-70
2022/04/01 11:14:04;;;;;;;65.95;20.82;;;;;;;14.73;83.97;97390.92;1720441;81;20971;-74
2022/04/01 11:16:54;;;;;;;60.25;21.80;;;;;;;14.78;82.61;97391.90;1699751;82;20967;-85
2022/04/01 11:19:28;;;;;;;43.83;20.25;;;;;;;14.74;82.94;97399.40;1686726;83;20887;-72
2022/04/01 11:22:01;;;;;;;51.40;22.70;;;;;;;14.70;82.67;97395.84;1714344;81;20958;-73
2022/04/01 11:24:38;;;;;;;48.48;21.05;;;;;;;14.61;82.41;97397.62;1711839;82;20848;-70
2022/04/01 11:27:23;;;;;;;60.73;21.80;;;;;;;14.51;82.78;97395.05;1710881;82;20959;-70
2022/04/01 11:30:14;;;;;;;42.25;22.35;;;;;;;14.42;83.14;97400.20;1714527;82;21018;-71
2022/04/01 11:32:47;;;;;;;47.73;21.30;;;;;;;14.35;83.52;97399.37;1723394;82;20997;-74
2022/04/01 11:35:16;;;;;;;53.68;22.48;;;;;;;14.28;84.30;97391.08;1713746;82;21259;-75
2022/04/01 11:37:45;;;;;;;46.48;20.68;;;;;;;14.29;84.42;97393.45;1736115;81;21088;-74
2022/04/01 11:40:21;;;;;;;48.05;23.12;;;;;;;14.33;84.56;97391.48;1739687;82;21066;-72
2022/04/01 11:43:02;;;;;;;54.30;22.00;;;;;;;14.37;84.12;97395.63;1735653;81;21168;-78